createdAt,value
2018-02-22T00:01:22.336Z,1.90
2018-02-22T00:03:48.581Z,2.00
2018-02-22T00:06:14.893Z,1.90
2018-02-22T00:08:41.077Z,1.90
2018-02-22T00:11:08.072Z,2.00
2018-02-22T00:13:34.651Z,2.00
2018-02-22T00:16:01.223Z,2.00
2018-02-22T00:18:28.357Z,2.00
2018-02-22T00:20:54.588Z,2.00
2018-02-22T00:23:20.798Z,2.20
2018-02-22T00:25:47.741Z,2.10
2018-02-22T00:28:13.928Z,2.10
2018-02-22T00:30:40.169Z,2.10
2018-02-22T00:33:06.359Z,2.00
2018-02-22T00:35:32.574Z,2.00
2018-02-22T00:37:59.107Z,2.00
2018-02-22T00:40:26.847Z,1.90
2018-02-22T00:42:53.025Z,1.90
2018-02-22T00:45:19.243Z,1.90
2018-02-22T00:47:45.451Z,2.00
2018-02-22T00:50:12.382Z,2.00
2018-02-22T00:52:38.606Z,2.00
2018-02-22T00:55:04.806Z,2.10
2018-02-22T00:57:30.989Z,2.10
2018-02-22T00:59:57.941Z,2.10
2018-02-22T01:02:24.149Z,2.00
2018-02-22T01:04:51.130Z,1.90
2018-02-22T01:07:17.324Z,2.00
2018-02-22T01:09:44.294Z,2.00
2018-02-22T01:12:10.457Z,2.10
2018-02-22T01:14:37.694Z,2.10
2018-02-22T01:17:03.855Z,2.10
2018-02-22T01:19:30.428Z,2.00
2018-02-22T01:21:56.966Z,2.00
2018-02-22T01:26:51.095Z,2.00
2018-02-22T01:29:17.295Z,2.00
2018-02-22T01:31:43.474Z,2.00
2018-02-22T01:34:10.098Z,2.00
2018-02-22T01:36:36.328Z,1.90
2018-02-22T01:39:02.920Z,1.90
2018-02-22T01:41:30.343Z,1.90
2018-02-22T01:43:56.504Z,1.90
2018-02-22T01:46:23.071Z,1.90
2018-02-22T01:48:49.605Z,1.80
2018-02-22T01:51:16.162Z,1.80
2018-02-22T01:53:43.108Z,1.90
2018-02-22T01:56:09.295Z,1.80
2018-02-22T01:58:36.236Z,1.80
2018-02-22T02:01:03.164Z,1.80
2018-02-22T02:03:30.494Z,1.70
2018-02-22T02:05:57.442Z,1.80
2018-02-22T02:08:23.616Z,1.70
2018-02-22T02:10:49.802Z,1.70
2018-02-22T02:13:16.000Z,1.80
2018-02-22T02:15:42.150Z,2.00
2018-02-22T02:18:08.413Z,2.10
2018-02-22T02:20:38.463Z,1.80
2018-02-22T02:23:05.176Z,1.70
2018-02-22T02:25:32.101Z,1.80
2018-02-22T02:28:04.370Z,1.70
2018-02-22T02:30:30.912Z,1.70
2018-02-22T02:32:57.107Z,1.50
2018-02-22T02:35:23.282Z,1.80
2018-02-22T02:37:50.278Z,1.80
2018-02-22T02:40:16.506Z,1.70
2018-02-22T02:42:42.724Z,1.70
2018-02-22T02:45:08.902Z,1.80
2018-02-22T02:47:35.142Z,1.70
2018-02-22T02:50:02.064Z,1.70
2018-02-22T02:52:28.218Z,1.60
2018-02-22T02:54:55.190Z,1.70
2018-02-22T02:57:21.736Z,1.90
2018-02-22T02:59:48.673Z,1.70
2018-02-22T03:02:15.385Z,1.80
2018-02-22T03:04:42.301Z,1.80
2018-02-22T03:07:08.478Z,1.80
2018-02-22T03:09:34.633Z,1.80
2018-02-22T03:12:00.846Z,1.80
2018-02-22T03:14:27.038Z,1.60
2018-02-22T03:16:54.031Z,1.80
2018-02-22T03:19:20.960Z,1.70
2018-02-22T03:21:47.155Z,1.60
2018-02-22T03:24:13.338Z,1.60
2018-02-22T03:26:39.526Z,1.60
2018-02-22T03:29:06.441Z,1.60
2018-02-22T03:31:32.590Z,1.60
2018-02-22T03:33:59.520Z,1.60
2018-02-22T03:36:25.670Z,1.50
2018-02-22T03:38:52.571Z,1.60
2018-02-22T03:41:18.767Z,1.60
2018-02-22T03:43:44.893Z,1.40
2018-02-22T03:46:11.078Z,1.50
2018-02-22T03:48:37.630Z,1.50
2018-02-22T03:51:04.527Z,1.50
2018-02-22T03:53:30.737Z,1.40
2018-02-22T03:55:56.900Z,1.40
2018-02-22T03:58:23.080Z,1.40
2018-02-22T04:00:49.293Z,1.40
2018-02-22T04:03:16.241Z,1.40
2018-02-22T04:05:43.210Z,1.50
2018-02-22T04:08:10.174Z,1.50
2018-02-22T04:10:36.353Z,1.50
2018-02-22T04:13:02.918Z,1.30
2018-02-22T04:15:29.470Z,1.50
2018-02-22T04:17:55.690Z,1.70
2018-02-22T04:20:21.922Z,1.30
2018-02-22T04:22:49.235Z,1.50
2018-02-22T04:25:16.161Z,1.50
2018-02-22T04:27:42.722Z,1.30
2018-02-22T04:30:09.647Z,1.40
2018-02-22T04:32:36.189Z,1.40
2018-02-22T04:35:02.877Z,1.20
2018-02-22T04:37:29.814Z,1.40
2018-02-22T04:39:55.939Z,1.40
2018-02-22T04:42:22.516Z,1.40
2018-02-22T04:44:48.670Z,1.50
2018-02-22T04:47:15.673Z,1.40
2018-02-22T04:49:42.203Z,1.50
2018-02-22T04:52:08.751Z,1.50
2018-02-22T04:54:35.367Z,1.60
2018-02-22T04:57:01.910Z,1.70
2018-02-22T04:59:28.477Z,1.50
2018-02-22T05:01:55.030Z,1.50
2018-02-22T05:04:21.194Z,1.70
2018-02-22T05:06:47.378Z,1.50
2018-02-22T05:09:14.080Z,1.50
2018-02-22T05:11:40.316Z,1.50
2018-02-22T05:14:07.287Z,1.50
2018-02-22T05:16:33.608Z,1.60
2018-02-22T05:19:00.228Z,1.40
2018-02-22T05:21:27.334Z,1.40
2018-02-22T05:23:53.519Z,1.40
2018-02-22T05:26:19.751Z,1.40
2018-02-22T05:28:46.682Z,1.30
2018-02-22T05:31:12.838Z,1.30
2018-02-22T05:33:39.032Z,1.30
2018-02-22T05:36:05.194Z,1.20
2018-02-22T05:38:31.406Z,1.20
2018-02-22T05:40:57.659Z,1.20
2018-02-22T05:43:23.834Z,1.20
2018-02-22T05:45:50.097Z,1.20
2018-02-22T05:48:16.279Z,1.20
2018-02-22T05:50:42.884Z,1.20
2018-02-22T05:53:09.031Z,1.20
2018-02-22T05:55:35.927Z,1.20
2018-02-22T05:58:02.093Z,1.20
2018-02-22T06:00:29.026Z,1.20
2018-02-22T06:02:55.198Z,1.30
2018-02-22T06:05:21.755Z,1.20
2018-02-22T06:07:47.926Z,1.20
2018-02-22T06:10:14.087Z,1.20
2018-02-22T06:12:40.755Z,1.20
2018-02-22T06:15:06.978Z,1.30
2018-02-22T06:17:33.284Z,1.30
2018-02-22T06:20:00.191Z,1.20
2018-02-22T06:22:26.781Z,1.30
2018-02-22T06:24:53.308Z,1.30
2018-02-22T06:27:20.243Z,1.20
2018-02-22T06:29:47.214Z,1.30
2018-02-22T06:32:13.681Z,1.20
2018-02-22T06:34:47.120Z,1.30
2018-02-22T06:37:14.059Z,1.30
2018-02-22T06:39:41.052Z,1.30
2018-02-22T06:42:07.637Z,1.30
2018-02-22T06:44:33.807Z,1.30
2018-02-22T06:47:00.793Z,1.30
2018-02-22T06:49:27.351Z,1.30
2018-02-22T06:51:54.261Z,1.40
2018-02-22T06:54:20.794Z,1.30
2018-02-22T06:56:47.033Z,1.40
2018-02-22T06:59:13.694Z,1.40
2018-02-22T07:01:40.042Z,1.40
2018-02-22T07:04:06.714Z,1.50
2018-02-22T07:06:33.771Z,1.50
2018-02-22T07:09:01.319Z,1.50
2018-02-22T07:11:27.901Z,1.60
2018-02-22T07:13:54.100Z,1.60
2018-02-22T07:16:20.326Z,1.60
2018-02-22T07:18:46.585Z,1.60
2018-02-22T07:21:12.811Z,1.70
2018-02-22T07:23:39.213Z,1.60
2018-02-22T07:26:05.424Z,1.80
2018-02-22T07:28:31.696Z,1.80
2018-02-22T07:30:57.938Z,1.80
2018-02-22T07:33:24.155Z,1.80
2018-02-22T07:35:51.094Z,1.80
2018-02-22T07:38:17.711Z,1.90
2018-02-22T07:40:44.242Z,1.90
2018-02-22T07:43:10.502Z,2.00
2018-02-22T07:45:37.043Z,2.10
2018-02-22T07:48:04.067Z,2.20
2018-02-22T07:50:30.246Z,2.40
2018-02-22T07:52:57.213Z,2.50
2018-02-22T07:55:23.455Z,2.60
2018-02-22T07:57:49.700Z,2.80
2018-02-22T08:00:16.659Z,3.50
2018-02-22T08:02:43.231Z,4.50
2018-02-22T08:07:37.732Z,5.70
2018-02-22T08:10:03.890Z,6.10
2018-02-22T08:12:30.499Z,6.80
2018-02-22T08:14:56.651Z,7.00
2018-02-22T08:17:23.602Z,7.10
2018-02-22T08:19:50.604Z,7.40
2018-02-22T08:22:16.803Z,7.60
2018-02-22T08:24:42.970Z,7.50
2018-02-22T08:27:09.542Z,7.80
2018-02-22T08:29:35.764Z,8.10
2018-02-22T08:32:02.718Z,8.30
2018-02-22T08:34:28.911Z,8.70
2018-02-22T08:36:55.942Z,8.40
2018-02-22T08:39:22.134Z,8.40
2018-02-22T08:41:48.310Z,8.20
2018-02-22T08:44:14.568Z,8.50
2018-02-22T08:46:41.491Z,8.70
2018-02-22T08:49:07.736Z,8.70
2018-02-22T08:51:34.679Z,8.70
2018-02-22T08:54:01.603Z,8.50
2018-02-22T08:56:29.349Z,8.30
2018-02-22T08:58:56.259Z,8.00
2018-02-22T09:01:22.461Z,7.90
2018-02-22T09:03:48.623Z,7.90
2018-02-22T09:06:14.755Z,8.00
2018-02-22T09:08:40.961Z,8.00
2018-02-22T09:11:07.879Z,8.00
2018-02-22T09:13:34.093Z,8.10
2018-02-22T09:16:00.310Z,8.30
2018-02-22T09:18:26.492Z,8.30
2018-02-22T09:20:53.459Z,8.20
2018-02-22T09:23:19.679Z,8.30
2018-02-22T09:25:45.833Z,8.30
2018-02-22T09:28:12.231Z,8.40
2018-02-22T09:30:38.762Z,8.60
2018-02-22T09:33:04.912Z,9.40
2018-02-22T09:35:31.706Z,10.10
2018-02-22T09:37:58.000Z,10.30
2018-02-22T09:40:24.208Z,10.20
2018-02-22T09:42:50.433Z,10.20
2018-02-22T09:45:16.613Z,10.10
2018-02-22T09:47:43.556Z,10.10
2018-02-22T09:50:09.841Z,10.00
2018-02-22T09:52:36.096Z,10.30
2018-02-22T09:55:02.307Z,10.40
2018-02-22T09:57:29.401Z,10.30
2018-02-22T09:59:55.678Z,10.40
2018-02-22T10:02:22.623Z,10.60
2018-02-22T10:04:48.830Z,10.60
2018-02-22T10:07:15.733Z,10.70
2018-02-22T10:09:41.966Z,10.60
2018-02-22T10:12:08.148Z,10.70
2018-02-22T10:14:34.330Z,10.70
2018-02-22T10:17:00.942Z,10.50
2018-02-22T10:19:27.131Z,10.50
2018-02-22T10:21:54.109Z,10.70
2018-02-22T10:24:20.295Z,10.80
2018-02-22T10:26:47.235Z,10.90
2018-02-22T10:29:13.836Z,10.90
2018-02-22T10:31:40.022Z,11.00
2018-02-22T10:34:06.925Z,11.40
2018-02-22T10:36:33.132Z,11.40
2018-02-22T10:38:59.335Z,11.60
2018-02-22T10:41:25.542Z,11.90
2018-02-22T10:43:52.560Z,12.30
2018-02-22T10:46:19.512Z,12.20
2018-02-22T10:48:46.432Z,12.60
2018-02-22T10:51:12.633Z,12.40
2018-02-22T10:53:38.794Z,12.70
2018-02-22T10:56:05.319Z,12.80
2018-02-22T10:58:31.518Z,12.60
2018-02-22T11:01:03.807Z,12.70
2018-02-22T11:03:30.036Z,13.00
2018-02-22T11:05:56.954Z,13.20
2018-02-22T11:08:23.845Z,13.70
2018-02-22T11:10:50.264Z,13.90
2018-02-22T11:13:16.418Z,13.70
2018-02-22T11:15:42.665Z,13.90
2018-02-22T11:18:09.250Z,14.40
2018-02-22T11:20:35.946Z,14.60
2018-02-22T11:23:02.893Z,14.70
2018-02-22T11:25:30.054Z,14.90
2018-02-22T11:27:56.668Z,15.60
2018-02-22T11:30:23.809Z,14.90
2018-02-22T11:32:49.978Z,14.70
2018-02-22T11:35:16.974Z,15.00
2018-02-22T11:37:43.176Z,15.10
2018-02-22T11:40:09.741Z,15.50
2018-02-22T11:42:35.923Z,15.30
2018-02-22T11:45:02.509Z,15.30
2018-02-22T11:47:29.064Z,15.30
2018-02-22T11:49:56.018Z,15.70
2018-02-22T11:52:22.417Z,15.40
2018-02-22T11:54:48.566Z,16.10
2018-02-22T11:57:15.507Z,16.60
2018-02-22T11:59:42.472Z,16.40
2018-02-22T12:02:09.441Z,16.10
2018-02-22T12:04:36.507Z,16.00
2018-02-22T12:07:02.718Z,16.10
2018-02-22T12:09:29.767Z,16.10
2018-02-22T12:11:56.712Z,16.00
2018-02-22T12:14:23.290Z,15.70
2018-02-22T12:16:50.681Z,15.70
2018-02-22T12:19:16.989Z,16.10
2018-02-22T12:21:43.201Z,16.40
2018-02-22T12:24:09.764Z,16.50
2018-02-22T12:26:35.989Z,16.50
2018-02-22T12:29:02.294Z,15.50
2018-02-22T12:31:28.453Z,15.40
2018-02-22T12:33:56.781Z,15.00
2018-02-22T12:36:22.953Z,15.40
2018-02-22T12:38:49.178Z,15.30
2018-02-22T12:41:15.330Z,15.30
2018-02-22T12:43:41.538Z,15.20
2018-02-22T12:46:07.721Z,15.30
2018-02-22T12:48:33.973Z,15.40
2018-02-22T12:51:00.139Z,15.30
2018-02-22T12:53:26.342Z,15.30
2018-02-22T12:55:52.546Z,15.00
2018-02-22T12:58:18.834Z,14.60
2018-02-22T13:00:45.781Z,14.00
2018-02-22T13:03:12.741Z,14.00
2018-02-22T13:05:39.805Z,14.20
2018-02-22T13:08:06.035Z,14.50
2018-02-22T13:10:32.228Z,14.30
2018-02-22T13:12:58.454Z,14.70
2018-02-22T13:15:24.745Z,14.60
2018-02-22T13:17:51.173Z,14.90
2018-02-22T13:20:17.405Z,15.50
2018-02-22T13:22:43.600Z,15.30
2018-02-22T13:25:11.000Z,14.00
2018-02-22T13:27:37.232Z,14.00
2018-02-22T13:30:03.429Z,14.20
2018-02-22T13:32:41.995Z,14.00
2018-02-22T13:35:08.258Z,13.90
2018-02-22T13:51:15.701Z,12.80
2018-02-22T13:53:41.963Z,12.60
2018-02-22T13:56:21.294Z,13.20
2018-02-22T13:58:47.928Z,13.20
2018-02-22T14:01:28.068Z,13.20
2018-02-22T14:03:54.280Z,12.50
2018-02-22T14:06:20.567Z,12.50
2018-02-22T14:08:47.538Z,11.80
2018-02-22T14:11:13.742Z,11.70
2018-02-22T14:13:40.779Z,11.40
2018-02-22T14:16:07.801Z,11.30
2018-02-22T14:18:34.041Z,11.20
2018-02-22T14:21:01.031Z,11.00
2018-02-22T14:23:27.305Z,11.00
2018-02-22T14:25:53.521Z,11.00
2018-02-22T14:28:19.833Z,10.80
2018-02-22T14:30:45.955Z,10.70
2018-02-22T14:33:12.233Z,10.30
2018-02-22T14:35:38.438Z,10.20
2018-02-22T14:38:04.641Z,10.30
2018-02-22T14:40:30.900Z,10.30
2018-02-22T14:42:57.162Z,10.10
2018-02-22T14:45:24.223Z,10.10
2018-02-22T14:47:51.202Z,10.10
2018-02-22T14:50:17.441Z,10.00
2018-02-22T14:52:43.685Z,10.00
2018-02-22T14:55:09.894Z,10.40
2018-02-22T14:57:36.155Z,10.70
2018-02-22T15:00:02.476Z,11.30
2018-02-22T15:02:28.785Z,11.30
2018-02-22T15:04:55.030Z,11.30
2018-02-22T15:07:21.281Z,11.50
2018-02-22T15:09:47.504Z,11.70
2018-02-22T15:12:14.204Z,11.70
2018-02-22T15:14:40.397Z,11.50
2018-02-22T15:17:07.376Z,11.20
2018-02-22T15:19:33.576Z,11.10
2018-02-22T15:22:00.591Z,10.70
2018-02-22T15:24:26.913Z,10.70
2018-02-22T15:26:53.210Z,9.00
2018-02-22T15:29:19.430Z,8.00
2018-02-22T15:31:45.680Z,7.30
2018-02-22T15:34:11.892Z,6.80
2018-02-22T15:36:38.212Z,6.80
2018-02-22T15:39:05.138Z,6.20
2018-02-22T15:41:31.344Z,6.10
2018-02-22T15:43:57.512Z,5.90
2018-02-22T15:46:25.891Z,5.70
2018-02-22T15:48:52.887Z,5.70
2018-02-22T15:51:19.139Z,5.70
2018-02-22T15:53:45.292Z,5.60
2018-02-22T15:56:12.273Z,5.50
2018-02-22T15:58:38.470Z,5.40
2018-02-22T16:01:05.440Z,5.40
2018-02-22T16:03:31.693Z,5.40
2018-02-22T16:05:57.880Z,5.30
2018-02-22T16:08:24.146Z,5.20
2018-02-22T16:10:51.202Z,5.10
2018-02-22T16:13:17.398Z,5.10
2018-02-22T16:15:43.628Z,4.80
2018-02-22T16:18:10.329Z,4.80
2018-02-22T16:20:36.574Z,4.70
2018-02-22T16:23:03.544Z,4.70
2018-02-22T16:25:29.846Z,4.60
2018-02-22T16:27:56.810Z,4.70
2018-02-22T16:30:22.959Z,4.70
2018-02-22T16:32:49.965Z,4.70
2018-02-22T16:35:17.225Z,4.50
2018-02-22T16:37:43.462Z,4.50
2018-02-22T16:40:09.670Z,4.50
2018-02-22T16:42:36.624Z,4.30
2018-02-22T16:45:04.462Z,4.30
2018-02-22T16:47:32.132Z,4.20
2018-02-22T16:49:58.422Z,4.20
2018-02-22T16:52:24.934Z,4.10
2018-02-22T16:54:51.178Z,4.00
2018-02-22T16:57:17.381Z,4.10
2018-02-22T16:59:44.363Z,3.90
2018-02-22T17:02:10.648Z,3.90
2018-02-22T17:04:37.570Z,3.90
2018-02-22T17:07:03.809Z,3.90
2018-02-22T17:09:30.058Z,3.70
2018-02-22T17:11:57.355Z,3.70
2018-02-22T17:14:23.609Z,3.70
2018-02-22T17:16:49.901Z,3.70
2018-02-22T17:19:16.051Z,3.70
2018-02-22T17:21:42.302Z,3.60
2018-02-22T17:24:09.263Z,3.50
2018-02-22T17:26:42.327Z,4.00
2018-02-22T17:29:14.622Z,4.70
2018-02-22T17:31:46.903Z,4.70
2018-02-22T17:34:13.855Z,4.20
2018-02-22T17:36:50.803Z,4.00
2018-02-22T17:39:35.148Z,4.00
2018-02-22T17:42:01.430Z,3.80
2018-02-22T17:44:27.703Z,3.70
2018-02-22T17:46:53.974Z,3.60
2018-02-22T17:49:21.049Z,3.40
2018-02-22T17:51:47.664Z,3.40
2018-02-22T17:54:14.634Z,3.30
2018-02-22T17:56:40.891Z,3.30
2018-02-22T17:59:07.100Z,3.30
2018-02-22T18:01:34.335Z,3.30
2018-02-22T18:04:00.662Z,3.30
2018-02-22T18:06:27.693Z,3.10
2018-02-22T18:08:55.727Z,3.00
2018-02-22T18:11:22.901Z,3.00
2018-02-22T18:13:50.017Z,2.90
2018-02-22T18:16:16.236Z,2.90
2018-02-22T18:18:42.553Z,3.00
2018-02-22T18:21:10.542Z,2.80
2018-02-22T18:23:36.878Z,2.80
2018-02-22T18:26:03.229Z,2.80
2018-02-22T18:28:30.473Z,2.70
2018-02-22T18:30:56.867Z,2.60
2018-02-22T18:33:24.713Z,2.60
2018-02-22T18:35:51.222Z,2.70
2018-02-22T18:38:17.802Z,2.70
2018-02-22T18:40:50.484Z,2.70
2018-02-22T18:43:24.805Z,3.00
2018-02-22T18:45:51.014Z,2.60
2018-02-22T18:48:18.117Z,2.60
2018-02-22T18:50:44.426Z,2.60
2018-02-22T18:53:10.736Z,2.50
2018-02-22T18:55:37.732Z,2.40
2018-02-22T18:58:04.043Z,2.40
2018-02-22T19:00:31.146Z,2.40
2018-02-22T19:02:58.153Z,2.50
2018-02-22T19:05:25.139Z,2.40
2018-02-22T19:07:51.443Z,2.40
2018-02-22T19:10:19.168Z,2.40
2018-02-22T19:12:45.439Z,2.40
2018-02-22T19:15:11.746Z,2.30
2018-02-22T19:17:38.029Z,2.30
2018-02-22T19:20:05.785Z,2.20
2018-02-22T19:22:32.678Z,2.20
2018-02-22T19:24:59.001Z,2.20
2018-02-22T19:27:25.376Z,2.10
2018-02-22T19:29:51.610Z,2.10
2018-02-22T19:32:17.831Z,2.10
2018-02-22T19:34:44.059Z,2.10
2018-02-22T19:37:10.294Z,2.10
2018-02-22T19:39:36.531Z,2.10
2018-02-22T19:42:02.744Z,2.10
2018-02-22T19:44:28.946Z,2.00
2018-02-22T19:46:55.227Z,2.00
2018-02-22T19:49:22.160Z,2.10
2018-02-22T19:51:48.367Z,2.10
2018-02-22T19:54:14.561Z,2.00
2018-02-22T19:56:40.786Z,2.20
2018-02-22T19:59:07.062Z,1.90
2018-02-22T20:01:33.343Z,1.80
2018-02-22T20:04:00.341Z,1.80
2018-02-22T20:06:26.611Z,1.80
2018-02-22T20:08:52.844Z,1.80
2018-02-22T20:11:19.381Z,1.80
2018-02-22T20:13:47.194Z,1.80
2018-02-22T20:16:13.441Z,1.80
2018-02-22T20:18:39.689Z,1.90
2018-02-22T20:21:05.970Z,2.00
2018-02-22T20:23:32.274Z,2.00
2018-02-22T20:25:59.352Z,1.80
2018-02-22T20:28:25.592Z,1.80
2018-02-22T20:30:53.373Z,1.80
2018-02-22T20:33:19.650Z,1.70
2018-02-22T20:35:46.699Z,1.80
2018-02-22T20:38:13.848Z,1.70
2018-02-22T20:40:40.816Z,1.70
2018-02-22T20:43:08.144Z,1.70
2018-02-22T20:45:35.178Z,1.60
2018-02-22T20:48:01.487Z,1.70
2018-02-22T20:50:27.755Z,1.60
2018-02-22T20:53:01.183Z,1.60
2018-02-22T20:55:31.076Z,1.60
2018-02-22T20:58:01.765Z,1.60
2018-02-22T21:00:30.723Z,1.60
2018-02-22T21:02:58.260Z,1.60
2018-02-22T21:05:24.639Z,1.90
2018-02-22T21:07:50.901Z,1.60
2018-02-22T21:10:17.135Z,1.60
2018-02-22T21:12:43.466Z,1.50
2018-02-22T21:15:10.067Z,1.50
2018-02-22T21:17:36.287Z,1.50
2018-02-22T21:20:02.591Z,1.50
2018-02-22T21:22:28.835Z,1.40
2018-02-22T21:24:55.050Z,1.40
2018-02-22T21:27:21.274Z,1.50
2018-02-22T21:29:47.468Z,1.40
2018-02-22T21:32:13.719Z,1.40
2018-02-22T21:34:40.692Z,1.40
2018-02-22T21:37:06.964Z,1.40
2018-02-22T21:39:33.162Z,1.50
2018-02-22T21:41:59.440Z,1.40
2018-02-22T21:44:26.408Z,1.40
2018-02-22T21:46:54.272Z,1.30
2018-02-22T21:49:21.255Z,1.30
2018-02-22T21:51:47.444Z,1.30
2018-02-22T21:54:14.410Z,1.30
2018-02-22T21:56:40.574Z,1.30
2018-02-22T21:59:06.802Z,1.40
2018-02-22T22:01:33.003Z,1.40
2018-02-22T22:03:59.212Z,1.40
2018-02-22T22:06:26.107Z,1.30
2018-02-22T22:08:52.338Z,1.30
2018-02-22T22:11:18.527Z,1.40
2018-02-22T22:13:44.756Z,1.30
2018-02-22T22:16:11.027Z,1.30
2018-02-22T22:18:37.241Z,1.30
2018-02-22T22:21:03.514Z,1.30
2018-02-22T22:23:30.514Z,1.20
2018-02-22T22:25:56.820Z,1.20
2018-02-22T22:28:23.230Z,1.20
2018-02-22T22:30:50.258Z,1.20
2018-02-22T22:33:16.457Z,1.20
2018-02-22T22:35:42.730Z,1.20
2018-02-22T22:38:09.676Z,1.20
2018-02-22T22:40:35.982Z,1.20
2018-02-22T22:43:02.204Z,1.30
2018-02-22T22:45:28.461Z,-0.70
2018-02-22T22:47:54.642Z,1.20
2018-02-22T22:50:20.854Z,1.20
2018-02-22T22:52:47.083Z,1.10
2018-02-22T22:55:13.252Z,1.10
2018-02-22T22:57:39.438Z,1.10
2018-02-22T23:00:05.671Z,1.00
2018-02-22T23:02:31.856Z,1.00
2018-02-22T23:04:58.030Z,1.00
2018-02-22T23:07:24.265Z,1.00
2018-02-22T23:09:50.561Z,1.00
2018-02-22T23:12:17.535Z,1.00
2018-02-22T23:14:43.769Z,1.00
2018-02-22T23:17:09.974Z,1.00
2018-02-22T23:19:36.914Z,0.90
2018-02-22T23:22:03.839Z,0.90
2018-02-22T23:24:30.138Z,1.00
2018-02-22T23:26:56.341Z,1.00
2018-02-22T23:29:22.504Z,1.00
2018-02-22T23:31:48.693Z,0.90
2018-02-22T23:34:14.863Z,0.90
2018-02-22T23:36:41.046Z,1.00
2018-02-22T23:39:07.285Z,1.00
2018-02-22T23:41:39.506Z,1.00
2018-02-22T23:44:05.708Z,0.90
2018-02-22T23:46:31.930Z,0.90
2018-02-22T23:48:58.129Z,0.90
2018-02-22T23:51:24.380Z,0.90
2018-02-22T23:53:50.571Z,0.80
2018-02-22T23:56:17.492Z,0.80
2018-02-22T23:58:44.262Z,0.80
